Time;durP1;ratioP1;P1;durP2;ratioP2;P2;SDS_P1;SDS_P2;PMS_P1;PMS_P2;Temp;Humidity;BMP_temperature;BMP_pressure;BME280_temperature;BME280_humidity;BME280_pressure;Samples;Min_cycle;Max_cycle;Signal;HPM_P1;HPM_P2
2022/02/24 00:02:18;;;;;;;7.32;2.55;;;4.00;98.00;;;;;;5035747;28;20040;-67
2022/02/24 00:04:44;;;;;;;4.78;2.40;;;3.70;98.00;;;;;;5037752;28;20033;-67
2022/02/24 00:07:47;;;;;;;5.18;2.45;;;3.70;98.00;;;;;;5036128;28;20037;-68
2022/02/24 00:10:14;;;;;;;5.05;2.60;;;3.70;98.00;;;;;;5032435;28;20060;-67
2022/02/24 00:12:43;;;;;;;6.03;2.50;;;3.70;98.00;;;;;;5044054;28;20318;-68
2022/02/24 00:15:10;;;;;;;8.25;5.32;;;3.80;98.00;;;;;;5031170;28;20034;-67
2022/02/24 00:17:36;;;;;;;9.48;5.68;;;3.70;98.00;;;;;;5033196;28;20105;-67
2022/02/24 00:20:03;;;;;;;9.70;5.28;;;3.40;98.00;;;;;;5034894;28;20087;-68
2022/02/24 00:22:28;;;;;;;11.05;4.90;;;3.20;98.00;;;;;;5035788;28;20033;-68
2022/02/24 00:24:54;;;;;;;12.25;5.95;;;3.00;98.00;;;;;;5034540;28;20045;-68
2022/02/24 00:27:20;;;;;;;8.00;4.57;;;2.80;98.00;;;;;;5034092;28;20026;-67
2022/02/24 00:29:46;;;;;;;9.25;5.22;;;2.70;98.00;;;;;;5034306;28;20064;-68
2022/02/24 00:32:12;;;;;;;9.57;4.53;;;2.60;98.00;;;;;;5033202;28;20353;-67
2022/02/24 00:34:37;;;;;;;9.75;4.72;;;2.50;98.00;;;;;;5034850;28;20406;-67
2022/02/24 00:37:03;;;;;;;5.95;2.70;;;2.50;98.00;;;;;;5034125;28;20033;-67
2022/02/24 00:39:30;;;;;;;5.18;2.42;;;2.60;97.20;;;;;;5033617;28;20034;-67
2022/02/24 00:41:56;;;;;;;5.07;2.13;;;2.90;97.00;;;;;;5034670;28;20048;-67
2022/02/24 00:44:22;;;;;;;5.75;2.47;;;3.40;97.50;;;;;;5033821;28;20045;-67
2022/02/24 00:46:47;;;;;;;6.65;2.47;;;3.70;98.00;;;;;;5034265;28;20029;-67
2022/02/24 00:49:14;;;;;;;5.65;2.25;;;4.00;98.00;;;;;;5033384;28;20038;-67
2022/02/24 00:51:40;;;;;;;4.93;2.20;;;4.20;98.00;;;;;;5029506;28;20037;-67
2022/02/24 00:54:06;;;;;;;4.68;2.35;;;4.40;98.00;;;;;;5032189;28;20064;-68
2022/02/24 00:56:31;;;;;;;6.13;2.28;;;4.50;98.00;;;;;;5028813;28;20025;-67
2022/02/24 00:58:58;;;;;;;4.45;2.20;;;4.60;98.00;;;;;;5028415;28;20040;-67
2022/02/24 01:01:23;;;;;;;4.53;2.28;;;4.50;98.00;;;;;;5026712;28;20032;-67
2022/02/24 01:03:49;;;;;;;5.93;2.03;;;4.50;98.00;;;;;;5031418;28;20415;-67
2022/02/24 01:06:15;;;;;;;4.60;2.30;;;4.50;98.00;;;;;;5029694;28;20030;-68
2022/02/24 01:08:43;;;;;;;8.23;2.40;;;4.40;98.00;;;;;;5030220;28;20037;-68
2022/02/24 01:11:09;;;;;;;5.38;2.30;;;4.50;98.00;;;;;;5021862;28;20021;-67
2022/02/24 01:13:35;;;;;;;5.03;2.22;;;4.50;98.00;;;;;;5029937;28;20029;-68
2022/02/24 01:16:01;;;;;;;5.05;2.25;;;4.50;98.00;;;;;;5034185;28;20473;-67
2022/02/24 01:18:28;;;;;;;4.45;2.42;;;4.50;98.00;;;;;;5031878;28;21484;-67
2022/02/24 01:20:54;;;;;;;5.60;2.70;;;4.50;98.00;;;;;;5034543;28;20026;-67
2022/02/24 01:23:19;;;;;;;6.00;2.35;;;4.50;98.00;;;;;;5030670;28;20083;-67
2022/02/24 01:25:45;;;;;;;4.00;2.33;;;4.50;98.00;;;;;;5036251;28;20056;-67
2022/02/24 01:28:11;;;;;;;6.43;2.97;;;4.50;98.00;;;;;;5031177;28;20112;-67
2022/02/24 01:30:37;;;;;;;6.10;2.90;;;4.40;98.00;;;;;;5032812;28;20029;-67
2022/02/24 01:33:03;;;;;;;6.40;3.08;;;4.30;98.00;;;;;;5032234;28;20499;-67
2022/02/24 01:35:28;;;;;;;7.70;3.30;;;4.30;98.00;;;;;;5032547;28;20034;-67
2022/02/24 01:37:54;;;;;;;7.63;3.50;;;4.40;98.00;;;;;;5029963;28;20032;-67
2022/02/24 01:40:20;;;;;;;8.73;3.40;;;4.50;98.00;;;;;;5032098;28;20112;-67
2022/02/24 01:42:46;;;;;;;10.10;3.58;;;4.60;98.00;;;;;;5032129;28;20029;-68
2022/02/24 01:45:13;;;;;;;7.72;3.78;;;4.60;98.00;;;;;;5038002;28;20033;-67
2022/02/24 01:47:41;;;;;;;6.05;3.17;;;4.70;98.00;;;;;;5033674;28;20426;-68
2022/02/24 01:50:12;;;;;;;8.82;3.20;;;4.80;98.00;;;;;;5035125;28;20430;-67
2022/02/24 01:52:39;;;;;;;5.93;3.10;;;4.70;98.00;;;;;;5037133;28;20040;-67
2022/02/24 01:55:06;;;;;;;7.63;3.38;;;4.70;98.00;;;;;;5034159;28;20025;-67
2022/02/24 01:57:32;;;;;;;6.28;3.15;;;4.60;98.00;;;;;;5034290;28;20033;-68
2022/02/24 01:59:58;;;;;;;5.07;3.00;;;4.60;98.00;;;;;;5032029;28;20033;-67
2022/02/24 02:02:24;;;;;;;7.07;3.28;;;4.60;98.00;;;;;;5032644;28;20025;-67
2022/02/24 02:04:50;;;;;;;7.35;3.25;;;4.70;98.00;;;;;;5035586;28;20029;-69
2022/02/24 02:07:16;;;;;;;8.88;3.72;;;4.80;98.00;;;;;;5031066;28;20040;-67
2022/02/24 02:09:42;;;;;;;7.15;3.35;;;4.80;98.00;;;;;;5034242;28;20045;-67
2022/02/24 02:12:08;;;;;;;7.68;4.18;;;4.90;98.00;;;;;;5034417;28;20419;-68
2022/02/24 02:14:36;;;;;;;6.13;3.10;;;4.80;98.00;;;;;;5032776;28;20044;-67
2022/02/24 02:17:02;;;;;;;5.75;2.95;;;4.90;98.00;;;;;;5033533;28;20025;-67
2022/02/24 02:19:28;;;;;;;6.28;3.20;;;4.80;98.00;;;;;;5036532;28;20037;-67
2022/02/24 02:21:54;;;;;;;7.20;3.42;;;4.60;98.00;;;;;;5034200;28;20457;-67
2022/02/24 02:24:20;;;;;;;6.57;3.38;;;4.70;98.00;;;;;;5033421;28;20033;-67
2022/02/24 02:26:49;;;;;;;5.38;3.10;;;4.70;98.00;;;;;;5036750;28;20434;-68
2022/02/24 02:29:17;;;;;;;6.25;3.30;;;4.80;98.00;;;;;;5041944;28;20050;-66
2022/02/24 02:31:44;;;;;;;7.18;3.22;;;4.80;98.00;;;;;;5038061;28;20484;-67
2022/02/24 02:34:16;;;;;;;6.25;3.42;;;4.90;98.00;;;;;;5036897;28;20060;-67
2022/02/24 02:36:45;;;;;;;7.57;3.90;;;4.90;98.00;;;;;;5036854;28;20021;-67
2022/02/24 02:39:11;;;;;;;6.75;3.30;;;4.90;98.00;;;;;;5038139;28;20021;-67
2022/02/24 02:41:39;;;;;;;6.93;3.47;;;4.80;98.00;;;;;;5037309;28;20083;-66
2022/02/24 02:44:06;;;;;;;7.35;3.40;;;4.70;98.00;;;;;;5037032;28;20021;-66
2022/02/24 02:46:32;;;;;;;6.85;3.38;;;4.70;98.00;;;;;;5037817;28;20032;-66
2022/02/24 02:48:58;;;;;;;7.22;3.72;;;4.60;98.00;;;;;;5037357;28;20100;-70
2022/02/24 02:51:23;;;;;;;6.28;4.00;;;4.60;98.00;;;;;;5036981;28;20408;-68
2022/02/24 02:53:49;;;;;;;7.07;3.55;;;4.60;98.00;;;;;;5036387;28;20018;-68
2022/02/24 02:56:18;;;;;;;6.90;3.85;;;4.60;98.00;;;;;;5039362;28;20402;-67
2022/02/24 02:58:44;;;;;;;8.95;4.63;;;4.50;98.00;;;;;;5036396;28;20100;-67
2022/02/24 03:01:10;;;;;;;7.20;4.22;;;4.50;98.00;;;;;;5037152;28;20097;-67
2022/02/24 03:03:36;;;;;;;8.65;4.60;;;4.50;98.00;;;;;;5048667;28;20345;-67
2022/02/24 03:06:01;;;;;;;8.90;4.53;;;4.40;98.00;;;;;;5036222;28;20094;-67
2022/02/24 03:08:27;;;;;;;8.27;4.90;;;4.50;98.00;;;;;;5035905;28;20029;-68
2022/02/24 03:10:53;;;;;;;8.43;4.80;;;4.50;98.00;;;;;;5037708;28;20018;-67
2022/02/24 03:13:19;;;;;;;10.13;5.70;;;4.50;98.00;;;;;;5035295;28;20048;-67
2022/02/24 03:15:45;;;;;;;10.80;4.95;;;4.50;98.00;;;;;;5048027;28;20036;-68
2022/02/24 03:18:12;;;;;;;8.45;4.88;;;4.40;98.00;;;;;;5037932;28;20567;-67
2022/02/24 03:20:37;;;;;;;9.00;4.75;;;4.50;98.00;;;;;;5037809;28;20067;-68
2022/02/24 03:23:08;;;;;;;10.07;5.22;;;4.50;98.00;;;;;;5035011;28;20448;-67
2022/02/24 03:25:34;;;;;;;9.23;5.28;;;4.40;98.00;;;;;;5038889;28;20072;-67
2022/02/24 03:28:01;;;;;;;10.10;5.30;;;4.30;98.00;;;;;;5036440;28;20109;-67
2022/02/24 03:30:27;;;;;;;10.30;5.13;;;4.30;98.00;;;;;;5035138;28;20026;-68
2022/02/24 03:32:54;;;;;;;11.43;5.25;;;4.30;98.00;;;;;;5036453;28;20029;-67
2022/02/24 03:35:21;;;;;;;9.90;5.30;;;4.30;98.00;;;;;;5037428;28;20025;-67
2022/02/24 03:37:48;;;;;;;11.00;5.53;;;4.40;98.00;;;;;;5036280;28;20036;-68
2022/02/24 03:40:14;;;;;;;10.27;6.00;;;4.50;98.00;;;;;;5035553;28;20037;-68
2022/02/24 03:42:41;;;;;;;7.55;4.70;;;4.50;98.00;;;;;;5035857;28;20055;-68
2022/02/24 03:45:08;;;;;;;10.00;5.25;;;4.60;98.00;;;;;;5035671;28;20039;-67
2022/02/24 03:47:33;;;;;;;11.02;5.82;;;4.60;98.00;;;;;;5033750;28;20299;-68
2022/02/24 03:50:05;;;;;;;8.55;4.82;;;4.60;98.00;;;;;;5037696;28;20025;-67
2022/02/24 03:52:33;;;;;;;8.52;5.38;;;4.70;98.00;;;;;;5034351;28;20116;-67
2022/02/24 03:54:58;;;;;;;9.32;5.00;;;4.70;98.00;;;;;;5034487;28;20033;-68
2022/02/24 03:57:24;;;;;;;7.30;4.55;;;4.70;98.00;;;;;;5036093;28;20032;-68
2022/02/24 03:59:53;;;;;;;7.30;5.05;;;4.70;98.00;;;;;;5030126;28;20024;-68
2022/02/24 04:02:18;;;;;;;8.75;4.82;;;4.70;98.00;;;;;;5035560;28;20030;-68
2022/02/24 04:04:44;;;;;;;8.10;5.15;;;4.70;98.00;;;;;;5037266;28;20075;-68
2022/02/24 04:07:10;;;;;;;10.18;5.30;;;4.70;98.00;;;;;;5035727;28;20053;-68
2022/02/24 04:09:36;;;;;;;8.07;5.00;;;4.70;98.00;;;;;;5036154;28;20037;-67
2022/02/24 04:12:03;;;;;;;9.57;4.80;;;4.60;98.00;;;;;;5034984;28;20033;-67
2022/02/24 04:14:28;;;;;;;8.98;5.00;;;4.60;98.00;;;;;;5033726;28;20112;-68
2022/02/24 04:16:54;;;;;;;8.90;5.25;;;4.50;98.00;;;;;;5031049;28;20117;-67
2022/02/24 04:19:20;;;;;;;9.23;4.88;;;4.40;98.00;;;;;;5032989;28;20029;-67
2022/02/24 04:21:45;;;;;;;8.73;4.78;;;4.20;98.00;;;;;;5033572;28;20377;-67
2022/02/24 04:24:11;;;;;;;9.00;4.20;;;4.20;98.00;;;;;;5035971;28;20094;-67
2022/02/24 04:26:37;;;;;;;7.78;4.40;;;4.30;98.00;;;;;;5034536;28;20069;-68
2022/02/24 04:29:03;;;;;;;7.05;4.22;;;4.30;98.00;;;;;;5033405;28;20034;-67
2022/02/24 04:31:29;;;;;;;9.00;4.43;;;4.10;98.00;;;;;;5033038;28;20021;-67
2022/02/24 04:33:55;;;;;;;8.95;4.35;;;4.00;98.00;;;;;;5032610;28;20064;-67
2022/02/24 04:36:22;;;;;;;6.63;3.78;;;3.80;98.00;;;;;;5034065;28;20283;-67
2022/02/24 04:38:48;;;;;;;8.80;4.00;;;3.80;98.00;;;;;;5045148;28;20024;-67
2022/02/24 04:41:14;;;;;;;7.72;3.85;;;3.80;98.00;;;;;;5041406;28;20029;-67
2022/02/24 04:43:39;;;;;;;7.22;3.90;;;3.70;98.00;;;;;;5033361;28;20033;-68
2022/02/24 04:46:05;;;;;;;8.40;4.05;;;3.60;98.00;;;;;;5036094;28;20036;-67
2022/02/24 04:48:31;;;;;;;8.07;4.10;;;3.70;98.00;;;;;;5033972;28;20037;-67
2022/02/24 04:50:57;;;;;;;7.28;3.72;;;3.60;98.00;;;;;;5031322;28;20061;-68
2022/02/24 04:53:23;;;;;;;13.35;7.70;;;3.40;98.00;;;;;;5037859;28;20037;-67
2022/02/24 04:55:48;;;;;;;6.70;4.10;;;3.40;98.00;;;;;;5034745;28;20323;-67
2022/02/24 04:58:15;;;;;;;6.72;3.70;;;3.10;98.00;;;;;;5034303;28;20034;-67
2022/02/24 05:00:43;;;;;;;6.22;3.50;;;3.00;98.00;;;;;;5034791;28;20025;-67
2022/02/24 05:03:08;;;;;;;7.72;3.75;;;3.20;98.00;;;;;;5035423;28;20060;-67
2022/02/24 05:05:34;;;;;;;7.15;3.58;;;3.30;98.00;;;;;;5034862;28;20054;-68
2022/02/24 05:08:00;;;;;;;7.65;3.85;;;3.40;98.00;;;;;;5040045;28;20438;-68
2022/02/24 05:10:26;;;;;;;6.53;3.25;;;3.40;98.00;;;;;;5036274;28;20072;-66
2022/02/24 05:12:52;;;;;;;8.95;3.85;;;3.50;98.00;;;;;;5034823;28;20044;-67
2022/02/24 05:15:18;;;;;;;8.35;3.88;;;3.60;98.00;;;;;;5032686;28;20017;-67
2022/02/24 05:17:44;;;;;;;6.78;3.40;;;3.70;98.00;;;;;;5034510;28;20467;-66
2022/02/24 05:20:11;;;;;;;7.32;3.65;;;3.70;98.00;;;;;;5033336;28;20021;-67
2022/02/24 05:22:40;;;;;;;9.20;3.53;;;3.80;98.00;;;;;;5033429;28;20291;-67
2022/02/24 05:25:10;;;;;;;7.78;3.50;;;3.90;98.00;;;;;;5034662;28;20033;-67
2022/02/24 05:27:36;;;;;;;5.60;2.90;;;4.10;98.00;;;;;;5034738;28;20033;-67
2022/02/24 05:30:03;;;;;;;8.10;4.53;;;4.10;98.00;;;;;;5034241;28;20021;-67
2022/02/24 05:32:29;;;;;;;9.15;4.00;;;4.20;98.00;;;;;;5034711;28;20116;-67
2022/02/24 05:34:54;;;;;;;10.50;5.57;;;4.20;98.00;;;;;;5034496;28;20104;-66
2022/02/24 05:37:21;;;;;;;15.05;7.47;;;4.10;98.00;;;;;;5033313;28;20029;-66
2022/02/24 05:39:47;;;;;;;17.00;8.68;;;4.10;98.00;;;;;;5034901;28;20445;-66
2022/02/24 05:42:13;;;;;;;17.88;9.07;;;4.10;98.00;;;;;;5040593;28;20116;-66
2022/02/24 05:44:38;;;;;;;7.65;5.00;;;4.20;98.00;;;;;;5033822;28;20026;-68
2022/02/24 05:47:04;;;;;;;6.78;4.47;;;4.20;98.00;;;;;;5034063;28;20055;-67
2022/02/24 05:49:30;;;;;;;7.93;4.47;;;4.30;98.00;;;;;;5034827;28;20163;-67
2022/02/24 05:51:55;;;;;;;8.20;4.07;;;4.30;98.00;;;;;;5034575;28;20044;-67
2022/02/24 05:54:21;;;;;;;7.45;3.53;;;4.30;98.00;;;;;;5034600;28;20083;-67
2022/02/24 05:56:47;;;;;;;9.68;4.55;;;4.30;98.00;;;;;;5034593;28;20033;-67
2022/02/24 05:59:12;;;;;;;7.35;3.83;;;4.30;98.00;;;;;;5033272;28;20036;-68
2022/02/24 06:01:38;;;;;;;11.30;3.70;;;4.30;98.00;;;;;;5038062;28;20299;-67
2022/02/24 06:04:04;;;;;;;9.98;3.55;;;4.30;98.00;;;;;;5035382;28;20048;-67
2022/02/24 06:06:30;;;;;;;6.13;2.92;;;4.30;98.00;;;;;;5037890;28;20060;-66
2022/02/24 06:08:55;;;;;;;6.65;3.42;;;4.30;98.00;;;;;;5031633;28;20536;-67
2022/02/24 06:11:24;;;;;;;5.72;3.10;;;4.30;98.00;;;;;;5038227;28;20052;-67
2022/02/24 06:13:49;;;;;;;6.25;3.38;;;4.30;98.00;;;;;;5036395;28;20030;-68
2022/02/24 06:16:15;;;;;;;6.03;3.70;;;4.40;98.00;;;;;;5039156;28;20488;-67
2022/02/24 06:18:41;;;;;;;7.43;3.63;;;4.40;98.00;;;;;;5039360;28;20088;-68
2022/02/24 06:21:07;;;;;;;5.18;3.00;;;4.40;98.00;;;;;;5038460;28;20021;-67
2022/02/24 06:23:33;;;;;;;5.80;3.03;;;4.40;98.00;;;;;;5039121;28;20291;-67
2022/02/24 06:25:58;;;;;;;6.28;2.50;;;4.40;98.00;;;;;;5038992;28;20133;-67
2022/02/24 06:28:24;;;;;;;6.03;2.65;;;4.50;98.00;;;;;;5038048;28;20029;-67
2022/02/24 06:30:50;;;;;;;8.65;2.75;;;4.50;98.00;;;;;;5037958;28;20026;-67
2022/02/24 06:33:15;;;;;;;7.80;3.38;;;4.50;98.00;;;;;;5038619;28;20092;-68
2022/02/24 06:35:41;;;;;;;10.48;5.15;;;4.70;98.00;;;;;;5038522;28;20087;-67
2022/02/24 06:38:06;;;;;;;8.55;5.10;;;4.90;98.00;;;;;;5038804;28;20025;-67
2022/02/24 06:40:32;;;;;;;6.47;2.70;;;4.90;98.00;;;;;;5038896;28;20036;-68
2022/02/24 06:42:59;;;;;;;6.95;2.60;;;4.90;98.00;;;;;;5038322;28;20021;-67
2022/02/24 06:45:24;;;;;;;5.25;2.20;;;5.00;98.00;;;;;;5037374;28;20179;-67
2022/02/24 06:47:52;;;;;;;4.43;2.00;;;5.10;98.00;;;;;;5038362;28;20478;-68
2022/02/24 06:50:18;;;;;;;5.15;2.42;;;5.20;98.00;;;;;;5038727;28;20059;-67
2022/02/24 06:52:44;;;;;;;5.93;1.98;;;5.30;98.00;;;;;;5038457;28;20122;-67
2022/02/24 06:55:10;;;;;;;4.53;2.22;;;5.40;97.70;;;;;;5037139;28;20048;-68
2022/02/24 06:57:42;;;;;;;4.45;2.00;;;5.30;97.50;;;;;;5037366;28;20032;-68
2022/02/24 07:00:08;;;;;;;3.92;1.83;;;5.30;97.40;;;;;;5037511;28;20044;-67
2022/02/24 07:02:34;;;;;;;5.35;2.45;;;5.50;97.00;;;;;;5038226;28;20018;-67
2022/02/24 07:05:04;;;;;;;6.22;2.35;;;5.50;96.60;;;;;;5038111;28;20033;-67
2022/02/24 07:07:31;;;;;;;4.35;2.08;;;5.60;96.30;;;;;;5038818;28;20108;-67
2022/02/24 07:09:57;;;;;;;4.00;1.75;;;5.60;96.20;;;;;;5038187;28;20091;-67
2022/02/24 07:12:23;;;;;;;5.43;2.40;;;5.70;95.70;;;;;;5037431;28;20505;-68
2022/02/24 07:14:48;;;;;;;6.55;2.38;;;6.00;94.90;;;;;;5037043;28;20124;-67
2022/02/24 07:17:15;;;;;;;5.57;1.75;;;6.20;94.00;;;;;;5038015;28;20346;-68
2022/02/24 07:19:40;;;;;;;4.13;2.00;;;6.30;93.20;;;;;;5038460;28;20033;-68
2022/02/24 07:22:06;;;;;;;4.45;1.70;;;6.10;94.00;;;;;;5037965;28;20037;-67
2022/02/24 07:24:32;;;;;;;3.00;1.50;;;6.30;93.20;;;;;;5037965;28;20044;-68
2022/02/24 07:26:58;;;;;;;5.53;2.25;;;6.60;91.90;;;;;;5037800;28;20040;-67
2022/02/24 07:29:23;;;;;;;5.38;1.70;;;6.80;91.20;;;;;;5036865;28;20207;-68
2022/02/24 07:31:49;;;;;;;4.55;1.60;;;6.90;90.60;;;;;;5037883;28;20033;-67
2022/02/24 07:34:14;;;;;;;4.85;2.00;;;7.00;91.20;;;;;;5037698;28;20441;-67
2022/02/24 07:36:41;;;;;;;5.70;2.20;;;7.00;90.40;;;;;;5037215;28;20029;-68
2022/02/24 07:39:15;;;;;;;5.85;2.80;;;7.20;90.20;;;;;;5037898;28;20017;-67
2022/02/24 07:41:41;;;;;;;6.30;2.28;;;7.20;90.20;;;;;;5037355;28;20079;-67
2022/02/24 07:44:07;;;;;;;9.00;4.05;;;7.20;90.30;;;;;;5036408;28;20034;-67
2022/02/24 07:46:33;;;;;;;5.03;2.28;;;7.30;90.40;;;;;;5037569;28;20033;-67
2022/02/24 07:49:00;;;;;;;4.80;2.08;;;7.40;89.90;;;;;;5037737;28;20063;-67
2022/02/24 07:51:28;;;;;;;4.20;1.88;;;7.40;91.10;;;;;;5037537;28;20029;-67
2022/02/24 07:53:54;;;;;;;5.13;2.28;;;7.50;90.30;;;;;;5037404;28;20025;-68
2022/02/24 07:56:19;;;;;;;6.18;1.88;;;7.40;91.20;;;;;;5037353;28;20106;-67
2022/02/24 07:58:45;;;;;;;6.10;2.17;;;7.30;91.10;;;;;;5036350;28;20033;-67
2022/02/24 08:01:11;;;;;;;5.60;1.80;;;7.50;89.30;;;;;;5037318;28;20025;-67
2022/02/24 08:03:36;;;;;;;5.85;2.15;;;7.80;89.10;;;;;;5037370;28;20100;-67
2022/02/24 08:06:03;;;;;;;5.22;2.47;;;8.00;87.40;;;;;;5037045;28;20038;-67
2022/02/24 08:08:29;;;;;;;7.65;2.40;;;8.20;88.20;;;;;;5037367;28;20029;-67
2022/02/24 08:10:55;;;;;;;6.32;2.33;;;8.30;88.50;;;;;;5036678;28;20039;-68
2022/02/24 08:13:21;;;;;;;5.63;2.15;;;8.50;86.60;;;;;;5035796;28;20086;-67
2022/02/24 08:15:47;;;;;;;4.40;1.80;;;8.60;87.20;;;;;;5036606;28;20029;-67
2022/02/24 08:18:13;;;;;;;5.50;1.90;;;8.90;85.30;;;;;;5036893;28;20481;-67
2022/02/24 08:20:38;;;;;;;7.63;2.55;;;9.20;85.40;;;;;;5037260;28;20411;-68
2022/02/24 08:23:04;;;;;;;4.78;1.83;;;9.70;84.00;;;;;;5036682;28;20030;-68
2022/02/24 08:25:31;;;;;;;3.50;1.30;;;10.50;83.60;;;;;;5036772;28;20073;-67
2022/02/24 08:27:57;;;;;;;5.00;1.58;;;11.90;79.40;;;;;;5036452;28;20318;-67
2022/02/24 08:30:23;;;;;;;7.15;2.80;;;13.30;74.80;;;;;;5036145;28;20026;-67
2022/02/24 08:32:51;;;;;;;6.15;2.20;;;14.40;71.80;;;;;;5036857;28;20075;-67
2022/02/24 08:35:18;;;;;;;6.82;2.60;;;15.00;69.00;;;;;;5036497;28;20117;-66
2022/02/24 08:37:47;;;;;;;6.07;2.00;;;14.70;69.00;;;;;;5036506;28;20022;-67
2022/02/24 08:40:14;;;;;;;4.88;1.88;;;14.40;69.70;;;;;;5036810;28;20021;-68
2022/02/24 08:42:40;;;;;;;3.60;1.45;;;14.70;69.70;;;;;;5036178;28;20040;-68
2022/02/24 08:45:07;;;;;;;4.47;1.50;;;14.00;69.20;;;;;;5035262;28;20040;-69
2022/02/24 08:47:33;;;;;;;5.35;1.63;;;12.90;72.00;;;;;;5036100;28;20025;-67
2022/02/24 08:50:01;;;;;;;5.57;1.98;;;12.60;73.20;;;;;;5036739;28;20025;-67
2022/02/24 08:52:26;;;;;;;4.47;1.83;;;12.70;73.50;;;;;;5036781;28;20399;-67
2022/02/24 08:54:52;;;;;;;7.13;2.10;;;12.80;73.40;;;;;;5036236;28;20052;-68
2022/02/24 08:57:18;;;;;;;4.10;1.73;;;12.90;73.20;;;;;;5036265;28;20029;-67
2022/02/24 08:59:43;;;;;;;4.60;1.80;;;12.90;73.60;;;;;;5035307;28;20013;-67
2022/02/24 09:02:09;;;;;;;5.43;1.63;;;13.10;73.80;;;;;;5036054;28;20021;-67
2022/02/24 09:04:35;;;;;;;4.97;1.70;;;13.60;73.30;;;;;;5036557;28;20034;-67
2022/02/24 09:07:00;;;;;;;5.10;1.85;;;13.80;71.80;;;;;;5036383;28;20112;-67
2022/02/24 09:09:26;;;;;;;5.45;1.90;;;13.50;72.30;;;;;;5036513;28;20025;-68
2022/02/24 09:11:52;;;;;;;6.15;2.20;;;13.50;73.20;;;;;;5035432;28;20326;-67
2022/02/24 09:14:18;;;;;;;6.63;2.08;;;13.80;72.50;;;;;;5034697;28;20026;-67
2022/02/24 09:16:44;;;;;;;5.82;1.77;;;14.10;71.50;;;;;;5036202;28;20076;-68
2022/02/24 09:19:11;;;;;;;3.95;1.77;;;13.70;72.50;;;;;;5034659;28;20370;-67
2022/02/24 09:21:37;;;;;;;5.18;2.03;;;13.60;73.30;;;;;;5036058;28;20365;-67
2022/02/24 09:24:03;;;;;;;5.68;1.90;;;13.90;72.60;;;;;;5036112;28;20326;-67
2022/02/24 09:26:29;;;;;;;6.03;2.20;;;13.60;72.90;;;;;;5035331;28;20041;-67
2022/02/24 09:28:55;;;;;;;9.85;2.03;;;13.50;73.20;;;;;;5034995;28;20036;-67
2022/02/24 09:31:20;;;;;;;5.63;1.60;;;13.60;73.50;;;;;;5035504;28;20039;-67
2022/02/24 09:33:47;;;;;;;4.35;1.50;;;13.70;72.10;;;;;;5035794;28;20022;-67
2022/02/24 09:36:13;;;;;;;5.22;1.70;;;13.60;73.00;;;;;;5035755;28;20090;-67
2022/02/24 09:38:39;;;;;;;8.38;1.75;;;13.80;73.60;;;;;;5035908;28;20100;-67
2022/02/24 09:41:05;;;;;;;5.38;1.92;;;14.40;71.50;;;;;;5035415;28;20107;-67
2022/02/24 09:43:34;;;;;;;5.63;1.90;;;14.80;71.30;;;;;;5033598;28;20418;-67
2022/02/24 09:46:11;;;;;;;5.05;1.40;;;14.70;70.00;;;;;;5034835;28;20336;-67
2022/02/24 09:48:41;;;;;;;5.95;1.83;;;14.30;70.10;;;;;;5036155;28;20087;-67
2022/02/24 09:51:10;;;;;;;4.63;1.40;;;14.40;71.30;;;;;;5035519;28;20029;-67
2022/02/24 09:53:37;;;;;;;7.30;1.52;;;14.10;71.50;;;;;;5035453;28;20041;-67
2022/02/24 09:56:04;;;;;;;4.97;1.50;;;14.20;70.60;;;;;;5035725;28;20034;-67
2022/02/24 09:58:31;;;;;;;5.93;1.80;;;14.50;70.60;;;;;;5034507;28;20080;-67
2022/02/24 10:01:02;;;;;;;6.35;1.60;;;14.60;70.60;;;;;;5035573;28;20056;-67
2022/02/24 10:03:32;;;;;;;4.57;1.52;;;14.30;69.90;;;;;;5035376;28;20049;-67
2022/02/24 10:06:00;;;;;;;5.55;1.58;;;13.80;70.10;;;;;;5034667;28;20029;-67
2022/02/24 10:08:31;;;;;;;5.15;1.50;;;14.20;70.60;;;;;;5035503;28;20057;-67
2022/02/24 10:10:58;;;;;;;7.25;2.20;;;14.00;70.30;;;;;;5035464;28;20057;-67
2022/02/24 10:13:24;;;;;;;5.15;1.42;;;13.60;70.80;;;;;;5034002;28;20109;-67
2022/02/24 10:16:02;;;;;;;4.53;1.60;;;14.00;70.10;;;;;;5035561;28;20113;-67
2022/02/24 10:18:30;;;;;;;4.70;1.90;;;14.00;69.90;;;;;;5035158;28;20037;-67
2022/02/24 10:20:58;;;;;;;4.18;1.63;;;14.00;69.70;;;;;;5034345;28;20474;-67
2022/02/24 10:23:51;;;;;;;4.63;1.63;;;13.80;69.20;;;;;;5035321;28;20033;-67
2022/02/24 10:26:17;;;;;;;5.80;1.83;;;14.10;69.80;;;;;;5032160;28;20153;-67
2022/02/24 10:28:49;;;;;;;6.32;1.50;;;14.20;69.30;;;;;;5033790;28;20112;-67
2022/02/24 10:31:23;;;;;;;5.22;1.65;;;13.90;69.30;;;;;;5035508;28;20021;-67
2022/02/24 10:33:53;;;;;;;;;;;14.00;69.20;;;;;;5035557;28;20026;-67
2022/02/24 10:36:24;;;;;;;4.57;1.40;;;14.00;69.30;;;;;;5035149;28;19920;-67
2022/02/24 10:39:09;;;;;;;2.70;1.17;;;14.60;69.00;;;;;;5034795;28;20049;-67
2022/02/24 10:41:46;;;;;;;6.25;2.10;;;14.20;68.30;;;;;;5035161;28;20445;-67
2022/02/24 10:44:17;;;;;;;5.32;1.60;;;13.60;68.30;;;;;;5033855;28;20045;-67
2022/02/24 10:46:49;;;;;;;4.18;1.55;;;13.60;68.70;;;;;;5037260;28;20025;-67
2022/02/24 10:49:36;;;;;;;3.38;1.40;;;14.10;68.40;;;;;;5038239;28;20045;-67
2022/02/24 10:52:16;;;;;;;4.63;1.35;;;14.00;66.20;;;;;;5019010;28;20314;-67
2022/02/24 10:54:55;;;;;;;3.75;1.40;;;14.20;66.40;;;;;;5036336;28;20346;-66
2022/02/24 10:57:24;;;;;;;4.35;1.58;;;13.60;65.10;;;;;;5046352;28;20166;-66
2022/02/24 10:59:51;;;;;;;5.97;1.33;;;12.90;66.50;;;;;;5038953;28;20032;-67
2022/02/24 11:02:17;;;;;;;3.20;1.38;;;12.60;65.20;;;;;;5038403;28;20025;-67
2022/02/24 11:04:45;;;;;;;3.80;1.63;;;12.30;66.30;;;;;;5038377;28;20322;-67
2022/02/24 11:07:11;;;;;;;4.75;1.70;;;12.20;67.00;;;;;;5038316;28;20040;-67
2022/02/24 11:09:39;;;;;;;5.40;1.33;;;12.20;67.30;;;;;;5038693;28;20025;-67
2022/02/24 11:12:08;;;;;;;5.20;1.50;;;12.80;66.60;;;;;;5038216;28;20060;-67
2022/02/24 11:14:34;;;;;;;4.82;1.65;;;12.80;66.10;;;;;;5036877;28;20029;-67
2022/02/24 11:17:04;;;;;;;4.15;1.48;;;12.80;65.20;;;;;;5038161;28;20033;-67
2022/02/24 11:19:32;;;;;;;4.85;1.80;;;13.10;64.70;;;;;;5037997;28;20426;-67
2022/02/24 11:22:00;;;;;;;4.00;1.33;;;13.50;64.70;;;;;;5038005;28;20029;-66
2022/02/24 11:24:28;;;;;;;4.38;1.60;;;13.70;62.70;;;;;;5038061;28;20017;-66
2022/02/24 11:27:21;;;;;;;6.28;1.40;;;13.60;63.50;;;;;;5038055;28;20103;-66
2022/02/24 11:30:17;;;;;;;3.78;1.25;;;13.50;63.00;;;;;;5036492;28;20034;-66
2022/02/24 11:32:47;;;;;;;5.95;2.03;;;13.40;63.80;;;;;;5037915;28;20022;-68
2022/02/24 11:35:20;;;;;;;4.28;1.20;;;13.10;63.20;;;;;;5036831;28;20445;-67
2022/02/24 11:37:48;;;;;;;5.72;1.75;;;13.00;63.80;;;;;;5037886;28;20026;-67
2022/02/24 11:40:32;;;;;;;4.38;1.52;;;13.10;64.40;;;;;;5037757;28;20445;-68
2022/02/24 11:43:23;;;;;;;5.95;1.80;;;13.30;63.60;;;;;;5036839;28;20040;-67
2022/02/24 11:45:51;;;;;;;4.88;1.60;;;13.40;64.40;;;;;;5037732;28;20047;-67
2022/02/24 11:48:18;;;;;;;5.85;1.90;;;13.80;64.50;;;;;;5037504;28;20051;-67
2022/02/24 11:51:03;;;;;;;4.43;1.50;;;13.90;63.20;;;;;;5036924;28;20391;-67
2022/02/24 11:53:33;;;;;;;6.88;1.60;;;13.70;63.30;;;;;;5051174;28;20414;-67
2022/02/24 11:56:03;;;;;;;5.05;1.75;;;13.80;64.40;;;;;;5046923;28;20033;-67
2022/02/24 11:58:49;;;;;;;5.50;1.85;;;14.10;64.60;;;;;;5035122;28;20036;-68
2022/02/24 12:01:38;;;;;;;4.65;1.38;;;14.60;64.50;;;;;;5037636;28;20022;-67
2022/02/24 12:04:20;;;;;;;4.43;1.70;;;14.60;62.90;;;;;;5037354;28;20104;-68
2022/02/24 12:06:49;;;;;;;7.07;1.63;;;14.10;62.80;;;;;;5037589;28;20112;-67
2022/02/24 12:09:14;;;;;;;6.80;1.60;;;13.60;64.60;;;;;;5037368;28;20025;-67
2022/02/24 12:11:50;;;;;;;5.82;1.50;;;13.50;65.10;;;;;;5037433;28;20322;-67
2022/02/24 12:14:22;;;;;;;7.38;1.73;;;13.80;66.10;;;;;;5035779;28;20021;-67
2022/02/24 12:17:05;;;;;;;8.27;1.70;;;13.80;66.10;;;;;;5037316;28;20319;-67
2022/02/24 12:19:53;;;;;;;4.83;1.67;;;13.30;67.00;;;;;;5037358;28;20088;-67
2022/02/24 12:22:35;;;;;;;5.35;1.45;;;13.10;66.80;;;;;;5036989;28;20426;-67
2022/02/24 12:25:17;;;;;;;5.75;1.55;;;12.80;66.80;;;;;;5036946;28;20053;-67
2022/02/24 12:27:46;;;;;;;6.47;2.05;;;12.50;66.30;;;;;;5037101;28;20025;-67
2022/02/24 12:30:15;;;;;;;7.63;2.17;;;12.50;66.10;;;;;;5035984;28;20049;-66
2022/02/24 12:32:43;;;;;;;5.90;1.77;;;12.60;65.80;;;;;;5036786;28;20033;-67
2022/02/24 12:35:12;;;;;;;5.05;2.42;;;12.60;65.50;;;;;;5037102;28;20024;-67
2022/02/24 12:37:40;;;;;;;8.27;2.05;;;12.70;65.70;;;;;;5035946;28;20029;-67
2022/02/24 12:40:06;;;;;;;6.30;1.83;;;12.80;65.50;;;;;;5036902;28;20459;-66
2022/02/24 12:42:32;;;;;;;7.78;1.77;;;12.70;65.60;;;;;;5036559;28;20017;-66
2022/02/24 12:44:59;;;;;;;8.13;2.20;;;12.70;65.70;;;;;;5035652;28;20437;-67
2022/02/24 12:47:26;;;;;;;5.43;1.77;;;12.80;66.20;;;;;;5036685;28;20081;-67
2022/02/24 12:49:54;;;;;;;5.45;1.88;;;12.90;65.70;;;;;;5036736;28;20162;-67
2022/02/24 12:52:27;;;;;;;7.72;1.92;;;12.80;65.20;;;;;;5036316;28;20021;-67
2022/02/24 12:54:53;;;;;;;4.88;1.65;;;12.80;64.50;;;;;;5036465;28;20040;-66
2022/02/24 12:57:19;;;;;;;5.50;1.65;;;12.50;65.20;;;;;;5036519;28;20426;-67